Time;durP1;ratioP1;P1;durP2;ratioP2;P2;SDS_P1;SDS_P2;PMS_P1;PMS_P2;Temp;Humidity;BMP_temperature;BMP_pressure;BME280_temperature;BME280_humidity;BME280_pressure;Samples;Min_cycle;Max_cycle;Signal;HPM_P1;HPM_P2
2023/03/04 00:01:22;;;;;;;;;;;;;;;1.47;84.42;98758.09;4454909;32;20033;-68
2023/03/04 00:03:50;;;;;;;;;;;;;;;1.41;84.55;98769.59;4454805;32;20326;-68
2023/03/04 00:06:17;;;;;;;;;;;;;;;1.40;84.06;98758.41;4454948;32;19972;-68
2023/03/04 00:08:44;;;;;;;;;;;;;;;1.47;83.02;98763.25;4454750;32;20021;-68
2023/03/04 00:11:12;;;;;;;;;;;;;;;1.53;82.45;98762.94;4445921;32;20030;-68
2023/03/04 00:13:39;;;;;;;;;;;;;;;1.56;81.29;98763.63;4445793;32;20714;-68
2023/03/04 00:16:07;;;;;;;;;;;;;;;1.62;80.73;98761.63;4454974;32;19976;-68
2023/03/04 00:18:34;;;;;;;;;;;;;;;1.61;80.34;98759.97;4454614;32;20442;-68
2023/03/04 00:21:02;;;;;;;;;;;;;;;1.67;79.72;98765.66;4454896;32;20022;-68
2023/03/04 00:23:29;;;;;;;;;;;;;;;1.70;79.38;98762.91;4454802;32;19984;-68
2023/03/04 00:25:57;;;;;;;;;;;;;;;1.69;79.63;98760.41;4454793;32;20019;-68
2023/03/04 00:28:24;;;;;;;;;;;;;;;1.67;79.71;98754.50;4454699;32;19981;-68
2023/03/04 00:30:52;;;;;;;;;;;;;;;1.57;80.54;98760.13;4454628;32;20026;-68
2023/03/04 00:33:19;;;;;;;;;;;;;;;1.52;80.91;98759.53;4454603;32;19984;-68
2023/03/04 00:35:48;;;;;;;;;;;;;;;1.50;81.14;98753.63;4440449;32;19973;-68
2023/03/04 00:38:15;;;;;;;;;;;;;;;1.53;80.41;98757.78;4454609;32;20352;-68
2023/03/04 00:40:42;;;;;;;;;;;;;;;1.54;80.32;98764.63;4454506;32;20523;-68
2023/03/04 00:43:10;;;;;;;;;;;;;;;1.46;80.77;98761.63;4454803;32;20330;-68
2023/03/04 00:45:37;;;;;;;;;;;;;;;1.41;80.63;98751.53;4454631;32;20022;-68
2023/03/04 00:48:05;;;;;;;;;;;;;;;1.50;79.16;98750.19;4454609;32;20393;-68
2023/03/04 00:50:32;;;;;;;;;;;;;;;1.55;78.30;98754.22;4454608;32;20041;-68
2023/03/04 00:53:00;;;;;;;;;;;;;;;1.46;79.30;98746.94;4454682;32;20017;-68
2023/03/04 00:55:29;;;;;;;;;;;;;;;1.36;81.36;98745.75;4453867;32;20007;-68
2023/03/04 00:57:56;;;;;;;;;;;;;;;1.21;83.20;98748.22;4454575;32;20018;-68
2023/03/04 01:00:23;;;;;;;;;;;;;;;0.99;85.11;98752.81;4454486;32;20007;-68
2023/03/04 01:02:51;;;;;;;;;;;;;;;0.86;85.84;98743.13;4454696;32;20038;-68
2023/03/04 01:05:18;;;;;;;;;;;;;;;0.77;86.43;98734.97;4440515;32;20087;-68
2023/03/04 01:07:46;;;;;;;;;;;;;;;0.66;87.32;98732.94;4454711;32;19984;-68
2023/03/04 01:10:14;;;;;;;;;;;;;;;0.53;88.46;98736.13;4452072;32;20000;-68
2023/03/04 01:12:41;;;;;;;;;;;;;;;0.43;90.12;98740.06;4439052;32;20472;-68
2023/03/04 01:15:10;;;;;;;;;;;;;;;0.27;91.04;98728.81;4454508;32;20029;-68
2023/03/04 01:17:38;;;;;;;;;;;;;;;0.13;92.17;98737.19;4454697;32;20314;-68
2023/03/04 01:20:06;;;;;;;;;;;;;;;0.08;92.42;98732.25;4454351;32;20030;-68
2023/03/04 01:22:34;;;;;;;;;;;;;;;0.02;92.81;98729.97;4440702;32;19992;-68
2023/03/04 01:25:02;;;;;;;;;;;;;;;-0.06;93.51;98732.06;4454392;32;19993;-68
2023/03/04 01:27:31;;;;;;;;;;;;;;;-0.13;94.00;98726.38;4454370;32;19988;-68
2023/03/04 01:29:58;;;;;;;;;;;;;;;-0.22;95.04;98731.94;4454335;32;19981;-68
2023/03/04 01:32:27;;;;;;;;;;;;;;;-0.33;96.00;98719.56;4454706;32;19988;-68
2023/03/04 01:34:55;;;;;;;;;;;;;;;-0.39;97.00;98727.56;4454066;32;20029;-68
2023/03/04 01:37:22;;;;;;;;;;;;;;;-0.44;96.91;98711.47;4454298;32;19985;-68
2023/03/04 01:39:50;;;;;;;;;;;;;;;-0.47;96.41;98717.62;4454129;32;19981;-68
2023/03/04 01:42:18;;;;;;;;;;;;;;;-0.42;95.95;98720.00;4454182;32;20045;-68
2023/03/04 01:44:45;;;;;;;;;;;;;;;-0.47;96.52;98711.63;4440164;32;19976;-68
2023/03/04 01:47:13;;;;;;;;;;;;;;;-0.45;96.01;98704.69;4440408;32;20047;-68
2023/03/04 01:49:40;;;;;;;;;;;;;;;-0.44;94.82;98706.34;4431092;32;20350;-68
2023/03/04 01:52:09;;;;;;;;;;;;;;;-0.38;93.88;98701.75;4454305;32;20032;-68
2023/03/04 01:54:37;;;;;;;;;;;;;;;-0.32;92.80;98700.63;4440182;32;20004;-68
2023/03/04 01:57:24;;;;;;;;;;;;;;;-0.22;91.46;98701.88;4454504;32;19989;-68
2023/03/04 02:00:10;;;;;;;;;;;;;;;-0.27;90.77;98703.84;4454012;32;20139;-68
2023/03/04 02:02:39;;;;;;;;;;;;;;;-0.30;89.75;98698.84;4454107;32;20471;-68
2023/03/04 02:05:07;;;;;;;;;;;;;;;-0.25;88.89;98702.03;4453684;32;20020;-68
2023/03/04 02:07:34;;;;;;;;;;;;;;;-0.19;88.00;98700.91;4454045;32;20029;-68
2023/03/04 02:10:02;;;;;;;;;;;;;;;-0.12;87.18;98701.44;4452982;32;19976;-68
2023/03/04 02:12:30;;;;;;;;;;;;;;;-0.07;86.96;98699.50;4438302;32;19989;-68
2023/03/04 02:14:58;;;;;;;;;;;;;;;0.04;85.89;98697.25;4450305;32;81654;-68
2023/03/04 02:17:26;;;;;;;;;;;;;;;-0.04;86.06;98689.06;4453901;32;19979;-68
2023/03/04 02:20:05;;;;;;;;;;;;;;;-0.09;85.96;98688.44;4453749;32;19976;-68
2023/03/04 02:22:33;;;;;;;;;;;;;;;-0.12;85.53;98686.00;4453810;32;20474;-68
2023/03/04 02:25:02;;;;;;;;;;;;;;;-0.13;85.74;98687.75;4439822;32;20072;-68
2023/03/04 02:27:30;;;;;;;;;;;;;;;-0.20;86.17;98684.63;4453794;32;19976;-68
2023/03/04 02:29:57;;;;;;;;;;;;;;;-0.20;86.47;98676.06;4453846;32;20001;-68
2023/03/04 02:32:26;;;;;;;;;;;;;;;-0.26;87.03;98674.63;4454104;32;19992;-68
2023/03/04 02:34:53;;;;;;;;;;;;;;;-0.28;87.50;98668.69;4453563;32;19995;-68
2023/03/04 02:37:20;;;;;;;;;;;;;;;-0.32;87.92;98668.91;4453761;32;20135;-68
2023/03/04 02:39:49;;;;;;;;;;;;;;;-0.30;87.82;98665.38;4453718;32;19973;-68
2023/03/04 02:42:17;;;;;;;;;;;;;;;-0.43;88.33;98666.84;4439527;32;19984;-68
2023/03/04 02:44:47;;;;;;;;;;;;;;;-0.48;88.85;98663.66;4453621;32;20052;-68
2023/03/04 02:47:16;;;;;;;;;;;;;;;-0.49;89.01;98664.56;4453573;32;20089;-68
2023/03/04 02:49:43;;;;;;;;;;;;;;;-0.60;90.42;98662.47;4453435;32;19977;-68
2023/03/04 02:52:16;;;;;;;;;;;;;;;-0.68;91.22;98657.69;4453388;32;19980;-68
2023/03/04 02:54:44;;;;;;;;;;;;;;;-0.76;92.00;98652.87;4439614;32;20317;-68
2023/03/04 02:57:12;;;;;;;;;;;;;;;-0.79;92.01;98645.31;4453490;32;19986;-68
2023/03/04 02:59:40;;;;;;;;;;;;;;;-0.75;91.48;98651.94;4453628;32;20000;-68
2023/03/04 03:02:09;;;;;;;;;;;;;;;-0.75;90.62;98656.28;4453660;32;20313;-68
2023/03/04 03:04:36;;;;;;;;;;;;;;;-0.75;89.78;98646.81;4453140;32;20277;-68
2023/03/04 03:07:06;;;;;;;;;;;;;;;-0.78;89.69;98648.69;4439661;32;20298;-68
2023/03/04 03:09:34;;;;;;;;;;;;;;;-0.83;89.15;98641.19;4439426;32;20000;-68
2023/03/04 03:12:01;;;;;;;;;;;;;;;-0.79;88.37;98640.16;4439417;32;20000;-68
2023/03/04 03:14:29;;;;;;;;;;;;;;;-0.69;86.89;98647.44;4435486;32;20035;-68
2023/03/04 03:16:57;;;;;;;;;;;;;;;-0.72;86.81;98645.84;4453385;32;20428;-68
2023/03/04 03:19:24;;;;;;;;;;;;;;;-0.70;86.27;98646.59;4454959;32;19977;-68
2023/03/04 03:21:51;;;;;;;;;;;;;;;-0.72;86.07;98645.84;4455592;32;19985;-68
2023/03/04 03:24:19;;;;;;;;;;;;;;;-0.73;85.92;98642.44;4455566;32;20327;-68
2023/03/04 03:26:46;;;;;;;;;;;;;;;-0.67;85.36;98640.50;4455162;32;19964;-68
2023/03/04 03:29:13;;;;;;;;;;;;;;;-0.73;85.44;98634.72;4455098;32;20004;-68
2023/03/04 03:31:41;;;;;;;;;;;;;;;-0.69;84.73;98635.41;4455086;32;19995;-68
2023/03/04 03:34:08;;;;;;;;;;;;;;;-0.69;84.80;98635.41;4455200;32;19980;-68
2023/03/04 03:36:35;;;;;;;;;;;;;;;-0.73;85.01;98632.16;4455051;32;19976;-68
2023/03/04 03:39:03;;;;;;;;;;;;;;;-0.68;84.62;98625.94;4455348;32;19984;-68
2023/03/04 03:41:30;;;;;;;;;;;;;;;-0.64;84.12;98632.62;4454785;32;20056;-68
2023/03/04 03:43:57;;;;;;;;;;;;;;;-0.63;84.47;98624.03;4455192;32;20048;-68
2023/03/04 03:46:26;;;;;;;;;;;;;;;-0.73;84.50;98621.87;4455071;32;20593;-68
2023/03/04 03:48:53;;;;;;;;;;;;;;;-0.77;84.91;98633.19;4455073;32;19999;-68
2023/03/04 03:51:20;;;;;;;;;;;;;;;-0.76;84.97;98618.59;4454976;32;20040;-68
2023/03/04 03:53:48;;;;;;;;;;;;;;;-0.73;85.06;98624.44;4454897;32;19976;-68
2023/03/04 03:56:15;;;;;;;;;;;;;;;-0.69;84.78;98619.97;4455017;32;19990;-68
2023/03/04 03:58:42;;;;;;;;;;;;;;;-0.72;85.18;98620.13;4454888;32;19988;-68
2023/03/04 04:01:10;;;;;;;;;;;;;;;-0.68;85.95;98625.94;4454847;32;20008;-68
2023/03/04 04:03:38;;;;;;;;;;;;;;;-0.72;86.91;98620.13;4454858;32;21068;-68
2023/03/04 04:06:06;;;;;;;;;;;;;;;-0.67;87.19;98618.16;4455054;32;20043;-68
2023/03/04 04:08:33;;;;;;;;;;;;;;;-0.73;88.02;98618.44;4454888;32;20036;-68
2023/03/04 04:11:00;;;;;;;;;;;;;;;-0.76;88.60;98618.59;4447341;32;19985;-68
2023/03/04 04:13:27;;;;;;;;;;;;;;;-0.70;88.65;98615.72;4444170;32;19976;-68
2023/03/04 04:15:55;;;;;;;;;;;;;;;-0.78;89.50;98615.25;4454890;32;19995;-68
2023/03/04 04:18:24;;;;;;;;;;;;;;;-0.81;89.88;98615.41;4454861;32;19996;-68
2023/03/04 04:20:52;;;;;;;;;;;;;;;-0.78;90.13;98613.50;4454632;32;19996;-68
2023/03/04 04:23:19;;;;;;;;;;;;;;;-0.70;90.11;98613.16;4454896;32;20334;-68
2023/03/04 04:25:47;;;;;;;;;;;;;;;-0.63;89.82;98609.41;4455013;32;20011;-68
2023/03/04 04:28:14;;;;;;;;;;;;;;;-0.57;89.71;98609.13;4454872;32;20010;-68
2023/03/04 04:30:41;;;;;;;;;;;;;;;-0.50;89.36;98603.69;4454693;32;19984;-68
2023/03/04 04:33:09;;;;;;;;;;;;;;;-0.47;89.48;98608.69;4454692;32;20029;-68
2023/03/04 04:35:39;;;;;;;;;;;;;;;-0.48;89.68;98601.91;4454619;32;19969;-68
2023/03/04 04:38:07;;;;;;;;;;;;;;;-0.41;89.72;98610.97;4454577;32;20392;-68
2023/03/04 04:40:34;;;;;;;;;;;;;;;-0.45;89.80;98597.44;4440644;32;20008;-68
2023/03/04 04:43:02;;;;;;;;;;;;;;;-0.55;90.53;98598.75;4454877;32;19972;-68
2023/03/04 04:45:29;;;;;;;;;;;;;;;-0.62;91.16;98600.78;4454569;32;19972;-68
2023/03/04 04:47:57;;;;;;;;;;;;;;;-0.76;92.36;98608.28;4454721;32;19977;-68
2023/03/04 04:50:24;;;;;;;;;;;;;;;-0.81;93.15;98600.78;4454697;32;19980;-68
2023/03/04 04:52:51;;;;;;;;;;;;;;;-0.81;93.57;98607.69;4454586;32;19995;-68
2023/03/04 04:55:19;;;;;;;;;;;;;;;-0.80;94.12;98596.47;4454677;32;19983;-68
2023/03/04 04:57:46;;;;;;;;;;;;;;;-0.79;94.46;98604.16;4454733;32;19994;-68
2023/03/04 05:00:14;;;;;;;;;;;;;;;-0.82;95.25;98606.84;4440440;32;20346;-68
2023/03/04 05:02:41;;;;;;;;;;;;;;;-0.84;96.04;98603.50;4454587;32;19996;-68
2023/03/04 05:05:08;;;;;;;;;;;;;;;-0.89;96.94;98602.91;4454379;32;20468;-68
2023/03/04 05:07:36;;;;;;;;;;;;;;;-0.88;97.70;98603.72;4440433;32;20000;-68
2023/03/04 05:10:03;;;;;;;;;;;;;;;-0.91;98.31;98602.97;4453248;32;20023;-68
2023/03/04 05:12:31;;;;;;;;;;;;;;;-0.94;99.43;98610.81;4438773;32;19993;-68
2023/03/04 05:14:59;;;;;;;;;;;;;;;-0.95;100.00;98598.84;4440092;32;19973;-68
2023/03/04 05:17:27;;;;;;;;;;;;;;;-0.92;100.00;98609.00;4454371;32;19976;-68
2023/03/04 05:19:54;;;;;;;;;;;;;;;-0.83;100.00;98602.59;4454387;32;20041;-68
2023/03/04 05:22:21;;;;;;;;;;;;;;;-0.89;100.00;98602.91;4440060;32;20002;-68
2023/03/04 05:24:49;;;;;;;;;;;;;;;-0.84;100.00;98605.25;4454396;32;20036;-68
2023/03/04 05:27:16;;;;;;;;;;;;;;;-0.91;100.00;98605.53;4454589;32;19980;-68
2023/03/04 05:29:45;;;;;;;;;;;;;;;-0.83;100.00;98596.63;4454683;32;20451;-68
2023/03/04 05:32:13;;;;;;;;;;;;;;;-0.82;100.00;98593.97;4454433;32;20021;-68
2023/03/04 05:34:40;;;;;;;;;;;;;;;-0.89;100.00;98597.75;4454165;32;19969;-68
2023/03/04 05:37:07;;;;;;;;;;;;;;;-0.83;100.00;98604.31;4454345;32;20465;-68
2023/03/04 05:39:34;;;;;;;;;;;;;;;-0.72;100.00;98600.38;4454219;32;20345;-68
2023/03/04 05:42:02;;;;;;;;;;;;;;;-0.63;100.00;98604.25;4453226;32;20350;-68
2023/03/04 05:44:29;;;;;;;;;;;;;;;-0.63;100.00;98611.97;4454239;32;20293;-68
2023/03/04 05:46:56;;;;;;;;;;;;;;;-0.58;100.00;98604.06;4454197;32;20441;-68
2023/03/04 05:49:23;;;;;;;;;;;;;;;-0.52;100.00;98615.81;4454208;32;20364;-68
2023/03/04 05:51:51;;;;;;;;;;;;;;;-0.42;100.00;98615.28;4454181;32;20064;-68
2023/03/04 05:54:18;;;;;;;;;;;;;;;-0.31;100.00;98616.53;4454140;32;20024;-68
2023/03/04 05:56:45;;;;;;;;;;;;;;;-0.28;100.00;98619.78;4453989;32;19984;-68
2023/03/04 05:59:19;;;;;;;;;;;;;;;-0.20;100.00;98624.56;4454196;32;19976;-68
2023/03/04 06:01:48;;;;;;;;;;;;;;;-0.26;100.00;98627.44;4454046;32;19987;-68
2023/03/04 06:04:16;;;;;;;;;;;;;;;-0.24;100.00;98626.47;4453998;32;19994;-68
2023/03/04 06:06:45;;;;;;;;;;;;;;;-0.26;100.00;98633.44;4453828;32;19984;-68
2023/03/04 06:09:13;;;;;;;;;;;;;;;-0.36;100.00;98647.66;4454329;32;20026;-68
2023/03/04 06:11:40;;;;;;;;;;;;;;;-0.29;100.00;98643.03;4442321;32;20042;-68
2023/03/04 06:14:08;;;;;;;;;;;;;;;-0.31;100.00;98650.00;4447561;32;20621;-68
2023/03/04 06:16:35;;;;;;;;;;;;;;;-0.31;100.00;98645.69;4453990;32;19984;-68
2023/03/04 06:19:03;;;;;;;;;;;;;;;-0.33;100.00;98644.94;4453645;32;20337;-68
2023/03/04 06:21:30;;;;;;;;;;;;;;;-0.31;100.00;98642.28;4453857;32;19977;-68
2023/03/04 06:23:57;;;;;;;;;;;;;;;-0.27;100.00;98647.22;4453894;32;20344;-68
2023/03/04 06:26:25;;;;;;;;;;;;;;;-0.30;100.00;98655.06;4453863;32;20029;-68
2023/03/04 06:28:55;;;;;;;;;;;;;;;-0.36;100.00;98658.75;4453748;32;20041;-68
2023/03/04 06:31:25;;;;;;;;;;;;;;;-0.30;100.00;98657.66;4453870;32;19988;-68
2023/03/04 06:33:53;;;;;;;;;;;;;;;-0.39;100.00;98663.22;4453715;32;19981;-68
2023/03/04 06:36:20;;;;;;;;;;;;;;;-0.22;100.00;98665.00;4453624;32;20061;-68
2023/03/04 06:38:47;;;;;;;;;;;;;;;-0.28;100.00;98671.28;4453569;32;19998;-68
2023/03/04 06:41:15;;;;;;;;;;;;;;;-0.28;100.00;98673.03;4453509;32;20293;-68
2023/03/04 06:43:42;;;;;;;;;;;;;;;-0.30;100.00;98667.94;4453473;32;20306;-68
2023/03/04 06:46:09;;;;;;;;;;;;;;;-0.21;100.00;98672.66;4453730;32;19984;-68
2023/03/04 06:48:37;;;;;;;;;;;;;;;-0.23;100.00;98669.34;4453792;32;20039;-68
2023/03/04 06:51:05;;;;;;;;;;;;;;;-0.17;100.00;98672.53;4453480;32;20000;-68
2023/03/04 06:53:32;;;;;;;;;;;;;;;-0.09;100.00;98665.25;4455292;32;19986;-68
2023/03/04 06:56:00;;;;;;;;;;;;;;;0.02;100.00;98663.00;4455374;32;20004;-68
2023/03/04 06:58:27;;;;;;;;;;;;;;;0.16;100.00;98670.91;4455334;32;19988;-68
2023/03/04 07:00:54;;;;;;;;;;;;;;;0.30;100.00;98666.81;4455315;32;20423;-68
2023/03/04 07:03:22;;;;;;;;;;;;;;;0.38;100.00;98661.28;4455278;32;19992;-68
2023/03/04 07:05:49;;;;;;;;;;;;;;;0.41;100.00;98664.56;4455259;32;19987;-68
2023/03/04 07:08:16;;;;;;;;;;;;;;;0.47;100.00;98677.16;4455338;32;19988;-68
2023/03/04 07:10:45;;;;;;;;;;;;;;;0.52;100.00;98676.91;4449275;32;20493;-68
2023/03/04 07:13:13;;;;;;;;;;;;;;;0.56;100.00;98667.28;4443355;32;19984;-68
2023/03/04 07:15:40;;;;;;;;;;;;;;;0.58;100.00;98671.47;4455225;32;19984;-68
2023/03/04 07:18:07;;;;;;;;;;;;;;;0.72;100.00;98668.19;4455261;32;19998;-68
2023/03/04 07:20:35;;;;;;;;;;;;;;;0.82;100.00;98669.38;4455216;32;20341;-68
2023/03/04 07:23:02;;;;;;;;;;;;;;;1.00;100.00;98666.75;4441145;32;20710;-68
2023/03/04 07:25:30;;;;;;;;;;;;;;;0.99;100.00;98665.94;4455147;32;19996;-68
2023/03/04 07:27:57;;;;;;;;;;;;;;;0.86;100.00;98663.16;4455160;32;19980;-68
2023/03/04 07:30:24;;;;;;;;;;;;;;;1.05;100.00;98657.06;4455045;32;19995;-68
2023/03/04 07:32:52;;;;;;;;;;;;;;;1.18;100.00;98660.66;4455218;32;19977;-68
2023/03/04 07:35:19;;;;;;;;;;;;;;;1.38;100.00;98658.78;4454794;32;20003;-68
2023/03/04 07:37:46;;;;;;;;;;;;;;;1.53;100.00;98660.53;4455271;32;19985;-68
2023/03/04 07:40:14;;;;;;;;;;;;;;;1.75;100.00;98664.50;4454813;32;20011;-68
2023/03/04 07:42:41;;;;;;;;;;;;;;;1.89;100.00;98658.59;4440841;32;19981;-68
2023/03/04 07:45:09;;;;;;;;;;;;;;;2.03;100.00;98660.37;4455041;32;20356;-68
2023/03/04 07:47:37;;;;;;;;;;;;;;;2.17;100.00;98652.72;4454975;32;19997;-68
2023/03/04 07:50:04;;;;;;;;;;;;;;;2.41;100.00;98657.41;4454987;32;19969;-68
2023/03/04 07:52:32;;;;;;;;;;;;;;;2.49;100.00;98648.25;4454989;32;20334;-68
2023/03/04 07:55:00;;;;;;;;;;;;;;;2.59;99.41;98656.34;4454942;32;20075;-68
2023/03/04 07:57:27;;;;;;;;;;;;;;;2.73;98.92;98657.28;4455093;32;20308;-68
2023/03/04 07:59:54;;;;;;;;;;;;;;;2.96;96.69;98656.72;4454820;32;20011;-68
2023/03/04 08:02:22;;;;;;;;;;;;;;;2.92;97.27;98663.03;4454908;32;20003;-68
2023/03/04 08:04:49;;;;;;;;;;;;;;;3.11;95.62;98661.94;4454337;32;20037;-68
2023/03/04 08:07:16;;;;;;;;;;;;;;;3.37;94.67;98663.75;4455003;32;20417;-68
2023/03/04 08:09:44;;;;;;;;;;;;;;;3.51;93.66;98656.88;4454863;32;19981;-68
2023/03/04 08:12:11;;;;;;;;;;;;;;;3.72;91.96;98652.13;4439874;32;20004;-68
2023/03/04 08:14:38;;;;;;;;;;;;;;;3.76;88.50;98651.00;4451787;32;20000;-68
2023/03/04 08:17:06;;;;;;;;;;;;;;;4.03;87.62;98650.19;4455121;32;19988;-68
2023/03/04 08:19:33;;;;;;;;;;;;;;;4.27;85.50;98640.00;4454412;32;19968;-68
2023/03/04 08:22:01;;;;;;;;;;;;;;;4.52;85.44;98646.16;4455225;32;20382;-68
2023/03/04 08:24:28;;;;;;;;;;;;;;;4.60;84.32;98643.84;4454652;32;20405;-68
2023/03/04 08:26:55;;;;;;;;;;;;;;;4.70;79.47;98655.28;4454831;32;20048;-68
2023/03/04 08:29:23;;;;;;;;;;;;;;;4.89;79.61;98641.91;4454758;32;20044;-68
2023/03/04 08:31:51;;;;;;;;;;;;;;;4.95;77.84;98648.44;4454638;32;20040;-68
2023/03/04 08:34:20;;;;;;;;;;;;;;;5.14;76.71;98641.03;4454807;32;19976;-68
2023/03/04 08:36:47;;;;;;;;;;;;;;;5.27;75.52;98641.03;4454706;32;20043;-68
2023/03/04 08:39:15;;;;;;;;;;;;;;;5.42;74.29;98652.13;4454642;32;20397;-68
2023/03/04 08:41:43;;;;;;;;;;;;;;;5.33;71.17;98627.63;4454458;32;20362;-68
2023/03/04 08:44:10;;;;;;;;;;;;;;;5.40;72.14;98643.59;4454800;32;19980;-68
2023/03/04 08:46:38;;;;;;;;;;;;;;;5.53;72.21;98650.53;4454712;32;19988;-68
2023/03/04 08:49:06;;;;;;;;;;;;;;;5.58;70.55;98656.25;4454608;32;20000;-68
2023/03/04 08:51:34;;;;;;;;;;;;;;;5.46;69.80;98653.56;4454798;32;20017;-68
2023/03/04 08:54:02;;;;;;;;;;;;;;;5.59;70.03;98657.91;4440976;32;19981;-68
2023/03/04 08:56:29;;;;;;;;;;;;;;;5.72;70.55;98640.50;4454619;32;20039;-68
2023/03/04 08:58:57;;;;;;;;;;;;;;;5.81;68.52;98647.66;4454533;32;19976;-68
2023/03/04 09:01:24;;;;;;;;;;;;;;;5.74;67.89;98650.78;4454222;32;19973;-68
2023/03/04 09:03:52;;;;;;;;;;;;;;;5.69;68.49;98644.16;4454379;32;20067;-68
2023/03/04 09:06:19;;;;;;;;;;;;;;;5.74;68.78;98630.84;4454392;32;20048;-68
2023/03/04 09:08:46;;;;;;;;;;;;;;;6.06;68.38;98635.50;4454352;32;20040;-68
2023/03/04 09:11:14;;;;;;;;;;;;;;;6.20;67.51;98629.28;4445228;32;20020;-68
2023/03/04 09:13:42;;;;;;;;;;;;;;;6.21;66.92;98630.97;4445364;32;19999;-68
2023/03/04 09:16:10;;;;;;;;;;;;;;;6.30;66.39;98626.81;4453642;32;19996;-68
2023/03/04 09:18:38;;;;;;;;;;;;;;;6.39;65.79;98641.78;4454616;32;19988;-68
2023/03/04 09:21:07;;;;;;;;;;;;;;;6.43;66.41;98639.78;4454316;32;19968;-68
2023/03/04 09:23:34;;;;;;;;;;;;;;;6.43;65.71;98632.78;4454397;32;20315;-68
2023/03/04 09:26:12;;;;;;;;;;;;;;;6.56;66.04;98632.72;4454555;32;20055;-68
2023/03/04 09:28:39;;;;;;;;;;;;;;;6.65;64.42;98634.63;4454585;32;19980;-68
2023/03/04 09:31:11;;;;;;;;;;;;;;;6.72;65.33;98638.44;4454600;32;19999;-68
2023/03/04 09:33:40;;;;;;;;;;;;;;;6.61;64.65;98629.75;4454518;32;20036;-68
2023/03/04 09:36:08;;;;;;;;;;;;;;;6.43;65.13;98630.19;4454461;32;19984;-68
2023/03/04 09:38:37;;;;;;;;;;;;;;;6.64;65.26;98626.94;4454282;32;20495;-68
2023/03/04 09:41:08;;;;;;;;;;;;;;;6.69;64.62;98628.25;4454192;32;19965;-68
2023/03/04 09:43:37;;;;;;;;;;;;;;;6.74;64.94;98625.28;4454341;32;19996;-68
2023/03/04 09:46:06;;;;;;;;;;;;;;;6.92;64.21;98628.28;4440444;32;20022;-68
2023/03/04 09:48:43;;;;;;;;;;;;;;;6.94;63.46;98626.38;4440352;32;20039;-68
2023/03/04 09:51:13;;;;;;;;;;;;;;;7.15;62.54;98629.09;4454583;32;19988;-68
2023/03/04 09:53:47;;;;;;;;;;;;;;;6.96;63.92;98610.62;4454295;32;20007;-68
2023/03/04 09:56:14;;;;;;;;;;;;;;;7.21;62.57;98620.00;4440511;32;19988;-68
2023/03/04 09:58:47;;;;;;;;;;;;;;;7.46;62.66;98622.34;4454175;32;20047;-68
2023/03/04 10:01:15;;;;;;;;;;;;;;;7.27;61.80;98611.69;4454075;32;19972;-68
2023/03/04 10:03:44;;;;;;;;;;;;;;;7.34;61.72;98614.63;4454033;32;20107;-68
2023/03/04 10:06:12;;;;;;;;;;;;;;;7.44;62.85;98607.75;4454070;32;19977;-68
2023/03/04 10:08:45;;;;;;;;;;;;;;;7.67;60.84;98607.72;4440124;32;19976;-68
2023/03/04 10:11:17;;;;;;;;;;;;;;;7.57;61.65;98603.22;4445331;32;19989;-68
2023/03/04 10:14:03;;;;;;;;;;;;;;;7.73;62.35;98596.78;4431581;32;20416;-68
2023/03/04 10:16:39;;;;;;;;;;;;;;;7.73;60.70;98591.56;4440170;32;20343;-68
2023/03/04 10:19:12;;;;;;;;;;;;;;;7.76;61.08;98591.31;4440088;32;19968;-68
2023/03/04 10:21:46;;;;;;;;;;;;;;;7.89;61.09;98589.38;4453861;32;20035;-68
2023/03/04 10:24:17;;;;;;;;;;;;;;;7.96;60.27;98593.16;4453949;32;19990;-68
2023/03/04 10:26:45;;;;;;;;;;;;;;;8.04;59.86;98586.47;4453598;32;20355;-68
2023/03/04 10:29:16;;;;;;;;;;;;;;;8.06;59.93;98584.56;4453628;32;20043;-68
2023/03/04 10:31:44;;;;;;;;;;;;;;;8.18;58.86;98581.78;4453707;32;20015;-68
2023/03/04 10:34:12;;;;;;;;;;;;;;;8.27;58.22;98582.81;4453923;32;20035;-68
2023/03/04 10:36:59;;;;;;;;;;;;;;;8.38;58.19;98570.66;4453664;32;20360;-68
2023/03/04 10:39:28;;;;;;;;;;;;;;;8.45;58.36;98569.22;4439843;32;20357;-68
2023/03/04 10:41:57;;;;;;;;;;;;;;;8.47;56.57;98567.28;4453400;32;19964;-68
2023/03/04 10:44:24;;;;;;;;;;;;;;;8.38;56.25;98575.87;4453652;32;20709;-68
2023/03/04 10:46:53;;;;;;;;;;;;;;;8.24;55.64;98556.97;4453582;32;20387;-68
2023/03/04 10:49:21;;;;;;;;;;;;;;;8.29;54.73;98562.63;4442807;32;20037;-68
2023/03/04 10:51:50;;;;;;;;;;;;;;;8.55;53.11;98559.63;4436952;32;19977;-68
2023/03/04 10:54:22;;;;;;;;;;;;;;;8.52;52.92;98557.28;4424381;32;19997;-68
2023/03/04 10:56:54;;;;;;;;;;;;;;;8.29;53.06;98561.78;4438026;32;20344;-68
2023/03/04 10:59:41;;;;;;;;;;;;;;;8.38;51.99;98568.84;4438466;32;20394;-68
2023/03/04 11:02:15;;;;;;;;;;;;;;;8.43;52.57;98553.66;4437823;32;20074;-68
2023/03/04 11:04:46;;;;;;;;;;;;;;;8.67;52.17;98545.53;4437738;32;19993;-68
2023/03/04 11:07:13;;;;;;;;;;;;;;;8.87;51.10;98551.69;4423789;32;20324;-68
2023/03/04 11:09:42;;;;;;;;;;;;;;;8.81;48.90;98553.97;4424070;32;19977;-68
2023/03/04 11:12:11;;;;;;;;;;;;;;;8.62;50.12;98546.91;4437604;32;20036;-68
2023/03/04 11:14:42;;;;;;;;;;;;;;;8.59;50.98;98536.72;4450215;32;19996;-68
2023/03/04 11:17:17;;;;;;;;;;;;;;;8.64;50.18;98539.75;4453211;32;20410;-68
2023/03/04 11:19:46;;;;;;;;;;;;;;;8.80;50.47;98534.06;4452924;32;20007;-68
2023/03/04 11:22:15;;;;;;;;;;;;;;;8.85;50.19;98531.88;4452890;32;20059;-68
2023/03/04 11:24:42;;;;;;;;;;;;;;;8.92;50.05;98527.78;4453102;32;19985;-68
2023/03/04 11:27:23;;;;;;;;;;;;;;;9.18;49.13;98516.84;4439086;32;20297;-68
2023/03/04 11:29:51;;;;;;;;;;;;;;;9.31;49.07;98512.19;4439068;32;19984;-68
2023/03/04 11:32:21;;;;;;;;;;;;;;;9.07;49.21;98507.34;4438969;32;20651;-68
2023/03/04 11:35:04;;;;;;;;;;;;;;;9.20;48.88;98518.34;4452908;32;19995;-68
2023/03/04 11:37:32;;;;;;;;;;;;;;;9.01;47.67;98508.69;4452797;32;20341;-68
2023/03/04 11:40:03;;;;;;;;;;;;;;;9.06;47.45;98490.81;4454547;32;19976;-68
2023/03/04 11:42:35;;;;;;;;;;;;;;;9.20;47.53;98501.84;4454853;32;20029;-68
2023/03/04 11:45:03;;;;;;;;;;;;;;;9.36;47.29;98494.31;4455162;32;19980;-68
2023/03/04 11:47:43;;;;;;;;;;;;;;;9.08;46.61;98497.69;4441037;32;19992;-68
2023/03/04 11:50:16;;;;;;;;;;;;;;;8.97;48.03;98482.97;4455205;32;19976;-68
2023/03/04 11:52:47;;;;;;;;;;;;;;;9.06;48.30;98490.00;4454854;32;20298;-68
2023/03/04 11:55:28;;;;;;;;;;;;;;;9.15;47.05;98481.34;4441396;32;19976;-68
2023/03/04 11:58:14;;;;;;;;;;;;;;;9.24;48.14;98491.00;4441078;32;20460;-68
2023/03/04 12:00:45;;;;;;;;;;;;;;;9.23;48.61;98478.06;4455021;32;20003;-68
2023/03/04 12:03:31;;;;;;;;;;;;;;;9.22;49.47;98492.09;4455003;32;20031;-68
2023/03/04 12:06:02;;;;;;;;;;;;;;;9.39;47.99;98477.53;4454805;32;20008;-68
2023/03/04 12:08:32;;;;;;;;;;;;;;;9.08;48.25;98479.41;4441122;32;19988;-68
2023/03/04 12:11:03;;;;;;;;;;;;;;;9.31;48.27;98486.06;4433495;32;20030;-68
2023/03/04 12:13:42;;;;;;;;;;;;;;;9.33;49.33;98470.25;4444638;32;20039;-68
2023/03/04 12:16:28;;;;;;;;;;;;;;;9.46;49.25;98473.38;4440923;32;20045;-68
2023/03/04 12:19:05;;;;;;;;;;;;;;;9.72;49.62;98473.69;4454969;32;19984;-68
2023/03/04 12:21:55;;;;;;;;;;;;;;;9.66;49.62;98466.38;4454723;32;20033;-68
2023/03/04 12:24:28;;;;;;;;;;;;;;;9.79;49.67;98473.12;4421326;32;20413;-68
2023/03/04 12:27:00;;;;;;;;;;;;;;;9.67;51.10;98460.16;4421618;32;19989;-68
2023/03/04 12:29:29;;;;;;;;;;;;;;;9.64;50.43;98457.84;4421694;32;20236;-68
2023/03/04 12:32:02;;;;;;;;;;;;;;;9.79;50.62;98467.88;4408882;32;19977;-68
2023/03/04 12:34:30;;;;;;;;;;;;;;;9.86;50.27;98458.53;4408870;32;20005;-68
2023/03/04 12:37:04;;;;;;;;;;;;;;;9.67;51.28;98460.16;4421263;32;20035;-68
2023/03/04 12:39:32;;;;;;;;;;;;;;;9.69;51.21;98460.03;4421719;32;20003;-68
2023/03/04 12:42:00;;;;;;;;;;;;;;;9.76;50.90;98443.66;4421032;32;20005;-68
2023/03/04 12:44:27;;;;;;;;;;;;;;;9.91;51.86;98446.66;4421358;32;19969;-68
2023/03/04 12:47:05;;;;;;;;;;;;;;;10.22;51.49;98450.84;4408946;32;20054;-68
2023/03/04 12:50:04;;;;;;;;;;;;;;;10.18;52.32;98444.25;4409198;32;19989;-68
2023/03/04 12:52:58;;;;;;;;;;;;;;;10.00;51.61;98434.50;4391188;32;20025;-68
2023/03/04 12:55:29;;;;;;;;;;;;;;;10.32;52.29;98435.94;4389025;32;20036;-68
2023/03/04 12:57:56;;;;;;;;;;;;;;;10.34;51.77;98443.66;4378715;32;20013;-68
2023/03/04 13:00:24;;;;;;;;;;;;;;;10.34;51.76;98438.44;4380128;32;20023;-68